KBOK/BOK METAR and TAF weather

Enter ICAO airport designator
Station Type Date Time Source
KBOK METAR 2021/08/04 19:56 UTC NOAA

KBOK 041956Z AUTO 22003KT 10SM OVC003 14/12 A2997 RMK AO2 SLP150 T01440122


Station Type Date Time Source
KBOK Decoded METAR 2021/08/04 19:56 UTC NOAA

Brookings, Brookings Airport, OR, United States (KBOK) 42-04-28N 124-17-24W
Aug 04, 2021 - 03:56 PM EDT / 2021.08.04 1956 UTC
Wind: from the SW (220 degrees) at 3 MPH (3 KT):0
Visibility: 10 mile(s):0
Sky conditions: overcast
Temperature: 57.9 F (14.4 C)
Dew Point: 54.0 F (12.2 C)
Relative Humidity: 86%
Pressure (altimeter): 29.97 in. Hg (1014 hPa)
ob: KBOK 041956Z AUTO 22003KT 10SM OVC003 14/12 A2997 RMK AO2 SLP150 T01440122
cycle: 20

Station Type Date Time Source
KBOK TAF UTC NOAA

Error!

Example: see airport list